LiveATC.Net - Listen to live air traffic control over the Internet!

ICAO: KHDC  IATA: HDC   Airport: Hammond Northshore Regional Airport
City: Hammond   State/Province: Louisiana
Country: United States   Continent: North America
KHDC METAR Weather: KHDC 252355Z AUTO 00000KT 10SM CLR 18/09 A3015 RMK AO2
KHDC Flight Activity (FlightAware)
KHDC Airport Info   (AirNav) (iFlightPlanner)
KHDC VFR Sectional Chart   (iFlightPlanner) 
KHDC IFR Low Chart   (iFlightPlanner) 
KHDC De/Gnd/Twr/App/ZHU
Feed Status: DOWN
Last heard on: 2016-09-23 14:18:03 (32 days 10 hours 13 minutes ago)
KHDC De/Gnd/Twr/App/ZHU Audio Archives
Hammond CTAF122.700
Hammond Ground119.850
Hammond Tower120.575
Houston Center (Low)126.350
New Orleans Approach (West)125.500
New Orleans Clearance/Approach119.300

Sponsored in part by: Fly By Knight


Unauthorized use prohibited. See Terms of Service

Find LiveATC Audio Streams

Airport/ARTCC Code

(e.g., 124.400, 128.75)
Site-wide search

Browse LiveATC Feeds
LiveATC Coverage Map
Top 50 LiveATC Feeds
Bad Weather Areas

Offer a LiveATC Feed
Press Inquiries

LiveATC on iPhone
LiveATC on Android

Windows Phone
Windows 8/10

LiveATC Mobile
(Mobile browser)

ATC Audio Archives
Interesting Recordings

LiveATC Forums

Home Page
Make a Donation
LiveATC Store

Terms of Use
Privacy Policy

Canadian Air Freqs


FAA Airport Status
Nat'l Airspace Status
Arrival Demand Charts

Server Software By: